WetterOnline ( https://www.wetteronline.de )

Wetter aktuell Schleswig

Aktuelles Wetter: Schleswig (48m)

6-stündlich | Neueste Meldungen
Ortszeit Temperatur Wetter
Mo, 29.11. 13:00 3.5° C bedeckt
Mo, 29.11. 7:00 1.5° C leichter Regen
Mo, 29.11. 1:00 -1.1° C Nebel
So, 28.11. 19:00 0.3° C Nebel
So, 28.11. 13:00 1.5° C Nebel
So, 28.11. 7:00 1.9° C bedeckt
So, 28.11. 1:00 2.5° C Regen
Sa, 27.11. 19:00 2.8° C leichter Regen
Ortszeit Temperatur Wetter
Mo, 29.11. 17:00 0.2° C wolkenlos
Mo, 29.11. 16:50 0.2° C wolkenlos
Mo, 29.11. 16:40 0.4° C fast wolkenlos
Mo, 29.11. 16:30 0.8° C leicht bewölkt
Mo, 29.11. 16:20 0.8° C leicht bewölkt
Mo, 29.11. 16:10 0.9° C leicht bewölkt
Mo, 29.11. 16:00 1.6° C leicht bewölkt
Mo, 29.11. 15:30 2.2° C leicht bewölkt
Mo, 29.11. 15:00 3.0° C wolkig
Mo, 29.11. 14:30 3.2° C bewölkt
Mo, 29.11. 14:00 3.2° C bewölkt
Ortszeit Relative Feuchte Sichtweite
Mo, 29.11. 13:00 77% 55 km
Mo, 29.11. 7:00 97% 4.2 km
Mo, 29.11. 1:00 96% 1.8 km
So, 28.11. 19:00 97% 0.3 km
So, 28.11. 13:00 95% 0.9 km
So, 28.11. 7:00 95% 4.9 km
So, 28.11. 1:00 96% 6 km
Sa, 27.11. 19:00 94% 4.4 km
Ortszeit Relative Feuchte Sichtweite
Mo, 29.11. 17:00 94% 28 km
Mo, 29.11. 16:50 94% -
Mo, 29.11. 16:40 94% -
Mo, 29.11. 16:30 93% 30 km
Mo, 29.11. 16:20 93% -
Mo, 29.11. 16:10 92% -
Mo, 29.11. 16:00 90% 35 km
Mo, 29.11. 15:30 87% 35 km
Mo, 29.11. 15:00 84% 65 km
Mo, 29.11. 14:30 81% 60 km
Mo, 29.11. 14:00 81% >70 km
Ortszeit Niederschlagsmenge Niederschlagsart
Mo, 29.11. 13:00 0.1 l/m2 in 6 Std. Schnee, Regen
Mo, 29.11. 7:00 0.1 l/m2 in 12 Std. Regen
Mo, 29.11. 1:00 0.0 l/m2 in 6 Std. -
So, 28.11. 19:00 0.1 l/m2 in 12 Std. Schnee, Sprühregen
So, 28.11. 13:00 0.1 l/m2 in 6 Std. Regen
So, 28.11. 7:00 1 l/m2 in 12 Std. Regen
So, 28.11. 1:00 0.7 l/m2 in 6 Std. Regen
Sa, 27.11. 19:00 1 l/m2 in 12 Std. Regen
Ortszeit Niederschlagsmenge Niederschlagsart
Mo, 29.11. 17:00 0.0 l/m2 in 1 Std. -
Mo, 29.11. 16:50 keine Meldung -
Mo, 29.11. 16:40 keine Meldung -
Mo, 29.11. 16:30 0.0 l/m2 in 1 Std. -
Mo, 29.11. 16:20 keine Meldung -
Mo, 29.11. 16:10 keine Meldung -
Mo, 29.11. 16:00 0.0 l/m2 in 1 Std. Regen
Mo, 29.11. 15:30 0.0 l/m2 in 1 Std. -
Mo, 29.11. 15:00 0.1 l/m2 in 1 Std. Sprühregen
Mo, 29.11. 14:30 0.1 l/m2 in 1 Std. Schnee
Mo, 29.11. 14:00 0.1 l/m2 in 1 Std. Regen
Ortszeit Stärke Spitze Richtung
km/h Bft. km/h Grad Sektor
Mo, 29.11. 13:00 11 2 29 20° N
Mo, 29.11. 7:00 9 2 15 330° NW
Mo, 29.11. 1:00 7 2 14 290° W
So, 28.11. 19:00 6 1 19 310° NW
So, 28.11. 13:00 11 2 22 290° W
So, 28.11. 7:00 9 2 20 310° NW
So, 28.11. 1:00 6 1 11 330° NW
Sa, 27.11. 19:00 7 2 25 10° N
Ortszeit Stärke Spitze Richtung
km/h Bft. km/h Grad Sektor
Mo, 29.11. 17:00 7 2 14 300° NW
Mo, 29.11. 16:50 7 2 - 300° NW
Mo, 29.11. 16:40 7 2 - 300° NW
Mo, 29.11. 16:30 7 2 11 300° NW
Mo, 29.11. 16:20 7 2 - 300° NW
Mo, 29.11. 16:10 7 2 - 300° NW
Mo, 29.11. 16:00 7 2 18 310° NW
Mo, 29.11. 15:30 9 2 19 320° NW
Mo, 29.11. 15:00 9 2 13 330° NW
Mo, 29.11. 14:30 7 2 13 360° N
Mo, 29.11. 14:00 7 2 20 350° N
Ortszeit Untergrenze Bedeckung Gattung
total tief tief mittel hoch
Mo, 29.11. 13:00 690 m 8/8 8/8 - - -
Mo, 29.11. 7:00 270 m 8/8 8/8 - - -
Mo, 29.11. 1:00 <30 m 5/8 0/8 - - -
So, 28.11. 19:00 <30 m 8/8 0/8 - - -
So, 28.11. 13:00 30 m 8/8 8/8 - - -
So, 28.11. 7:00 120 m 8/8 8/8 - - -
So, 28.11. 1:00 210 m 8/8 8/8 - - -
Sa, 27.11. 19:00 90 m 7/8 7/8 - - -
Ortszeit Bedeckungsgrad in Achtel und Wolkenuntergrenze
Mo, 29.11. 17:00 keine Wolken
Mo, 29.11. 16:50 keine Wolken
Mo, 29.11. 16:40 1(600m)
Mo, 29.11. 16:30 2(570m) 3(8100m)
Mo, 29.11. 16:20 2(570m) 3(8100m)
Mo, 29.11. 16:10 1(420m) 4(7200m) 5(8100m)
Mo, 29.11. 16:00 1(420m) 5(7200m)
Mo, 29.11. 15:30 3(480m) 4(960m)
Mo, 29.11. 15:00 6(1020m) 3(480m) 6(960m)
Mo, 29.11. 14:30 7(900m)
Mo, 29.11. 14:00 7(930m)
Ortszeit Luftdruck NN (hPa) Tendenz (hPa in 3 Std.)
Mo, 29.11. 13:00 1006 + 1,4
Mo, 29.11. 7:00 1002 + 1,9
Mo, 29.11. 1:00 999 + 0,8
So, 28.11. 19:00 997 + 1,2
So, 28.11. 13:00 995 + 0,2
So, 28.11. 7:00 994 + 0,3
So, 28.11. 1:00 993 - 0,2
Sa, 27.11. 19:00 993 + 1,1
Ortszeit Luftdruck NN (hPa) Tendenz (hPa in 3 Std.)
Mo, 29.11. 17:00 1008 + 1,3
Mo, 29.11. 16:50 1008 keine Meldung
Mo, 29.11. 16:40 1008 keine Meldung
Mo, 29.11. 16:30 1007 + 1,1
Mo, 29.11. 16:20 1007 keine Meldung
Mo, 29.11. 16:10 1007 keine Meldung
Mo, 29.11. 16:00 1007 + 1,0
Mo, 29.11. 15:30 1007 + 1,1
Mo, 29.11. 15:00 1007 + 1,1
Mo, 29.11. 14:30 1006 + 0,8
Mo, 29.11. 14:00 1006 + 0,9
Ortszeit Schneehöhe (cm)
Mo, 29.11. 13:00 0
Mo, 29.11. 7:00 0
Mo, 29.11. 1:00 0
So, 28.11. 19:00 0
So, 28.11. 13:00 0
So, 28.11. 7:00 0
So, 28.11. 1:00 0
Sa, 27.11. 19:00 0
Ortszeit Schneehöhe (cm)
Mo, 29.11. 17:00 0
Mo, 29.11. 16:50 0
Mo, 29.11. 16:40 0
Mo, 29.11. 16:30 0
Mo, 29.11. 16:20 0
Mo, 29.11. 16:10 0
Mo, 29.11. 16:00 0
Mo, 29.11. 15:30 0
Mo, 29.11. 15:00 0
Mo, 29.11. 14:30 0
Mo, 29.11. 14:00 0
Link zu dieser Seite / Seite empfehlen

Das Wetter in ...